sensor_id;sensor_type;location;lat;lon;timestamp;P1;durP1;ratioP1;P2;durP2;ratioP2
7613;SDS011;3848;42.016;23.098;2022-10-31T00:02:02;19.10;;;17.67;;
7613;SDS011;3848;42.016;23.098;2022-10-31T00:04:28;19.37;;;17.73;;
7613;SDS011;3848;42.016;23.098;2022-10-31T00:06:55;18.80;;;17.30;;
7613;SDS011;3848;42.016;23.098;2022-10-31T00:09:24;19.17;;;17.77;;
7613;SDS011;3848;42.016;23.098;2022-10-31T00:11:51;18.10;;;16.33;;
7613;SDS011;3848;42.016;23.098;2022-10-31T00:14:18;18.53;;;17.27;;
7613;SDS011;3848;42.016;23.098;2022-10-31T00:16:44;19.27;;;17.90;;
7613;SDS011;3848;42.016;23.098;2022-10-31T00:19:11;18.30;;;16.63;;
7613;SDS011;3848;42.016;23.098;2022-10-31T00:21:38;16.97;;;15.97;;
7613;SDS011;3848;42.016;23.098;2022-10-31T00:24:05;17.10;;;15.80;;
7613;SDS011;3848;42.016;23.098;2022-10-31T00:26:33;17.77;;;16.37;;
7613;SDS011;3848;42.016;23.098;2022-10-31T00:29:00;16.87;;;15.77;;
7613;SDS011;3848;42.016;23.098;2022-10-31T00:31:27;17.83;;;16.53;;
7613;SDS011;3848;42.016;23.098;2022-10-31T00:33:54;17.37;;;16.27;;
7613;SDS011;3848;42.016;23.098;2022-10-31T00:36:21;17.90;;;16.30;;
7613;SDS011;3848;42.016;23.098;2022-10-31T00:38:47;19.10;;;17.23;;
7613;SDS011;3848;42.016;23.098;2022-10-31T00:41:15;18.33;;;17.27;;
7613;SDS011;3848;42.016;23.098;2022-10-31T00:43:44;24.87;;;22.50;;
7613;SDS011;3848;42.016;23.098;2022-10-31T00:46:12;17.93;;;16.63;;
7613;SDS011;3848;42.016;23.098;2022-10-31T00:48:39;18.60;;;17.30;;
7613;SDS011;3848;42.016;23.098;2022-10-31T00:51:06;18.50;;;17.30;;
7613;SDS011;3848;42.016;23.098;2022-10-31T00:53:33;18.57;;;17.10;;
7613;SDS011;3848;42.016;23.098;2022-10-31T00:56:00;19.10;;;17.77;;
7613;SDS011;3848;42.016;23.098;2022-10-31T00:58:26;17.40;;;16.40;;
7613;SDS011;3848;42.016;23.098;2022-10-31T01:00:54;17.97;;;16.77;;
7613;SDS011;3848;42.016;23.098;2022-10-31T01:03:22;17.40;;;16.20;;
7613;SDS011;3848;42.016;23.098;2022-10-31T01:05:56;18.47;;;17.27;;
7613;SDS011;3848;42.016;23.098;2022-10-31T01:08:24;17.57;;;16.47;;
7613;SDS011;3848;42.016;23.098;2022-10-31T01:10:58;16.97;;;15.93;;
7613;SDS011;3848;42.016;23.098;2022-10-31T01:13:29;16.70;;;15.70;;
7613;SDS011;3848;42.016;23.098;2022-10-31T01:15:57;17.93;;;16.63;;
7613;SDS011;3848;42.016;23.098;2022-10-31T01:18:25;19.27;;;17.90;;
7613;SDS011;3848;42.016;23.098;2022-10-31T01:20:59;19.70;;;18.27;;
7613;SDS011;3848;42.016;23.098;2022-10-31T01:23:28;19.17;;;17.97;;
7613;SDS011;3848;42.016;23.098;2022-10-31T01:25:59;20.37;;;18.40;;
7613;SDS011;3848;42.016;23.098;2022-10-31T01:28:26;18.83;;;17.47;;
7613;SDS011;3848;42.016;23.098;2022-10-31T01:30:53;19.87;;;18.30;;
7613;SDS011;3848;42.016;23.098;2022-10-31T01:33:21;19.53;;;18.13;;
7613;SDS011;3848;42.016;23.098;2022-10-31T01:35:48;19.37;;;18.07;;
7613;SDS011;3848;42.016;23.098;2022-10-31T01:38:15;18.93;;;17.43;;
7613;SDS011;3848;42.016;23.098;2022-10-31T01:40:42;18.83;;;17.53;;
7613;SDS011;3848;42.016;23.098;2022-10-31T01:43:10;18.97;;;17.57;;
7613;SDS011;3848;42.016;23.098;2022-10-31T01:45:39;19.30;;;18.10;;
7613;SDS011;3848;42.016;23.098;2022-10-31T01:48:09;17.97;;;16.77;;
7613;SDS011;3848;42.016;23.098;2022-10-31T01:50:42;18.53;;;17.07;;
7613;SDS011;3848;42.016;23.098;2022-10-31T01:53:12;17.60;;;16.40;;
7613;SDS011;3848;42.016;23.098;2022-10-31T01:55:39;17.77;;;16.67;;
7613;SDS011;3848;42.016;23.098;2022-10-31T01:58:11;19.57;;;18.13;;
7613;SDS011;3848;42.016;23.098;2022-10-31T02:00:40;19.80;;;18.40;;
7613;SDS011;3848;42.016;23.098;2022-10-31T02:03:09;20.27;;;18.27;;
7613;SDS011;3848;42.016;23.098;2022-10-31T02:05:36;19.57;;;18.07;;
7613;SDS011;3848;42.016;23.098;2022-10-31T02:08:06;19.23;;;17.93;;
7613;SDS011;3848;42.016;23.098;2022-10-31T02:10:38;18.43;;;17.00;;
7613;SDS011;3848;42.016;23.098;2022-10-31T02:13:06;18.87;;;17.67;;
7613;SDS011;3848;42.016;23.098;2022-10-31T02:15:35;18.77;;;17.27;;
7613;SDS011;3848;42.016;23.098;2022-10-31T02:18:03;17.67;;;16.67;;
7613;SDS011;3848;42.016;23.098;2022-10-31T02:20:32;17.00;;;15.80;;
7613;SDS011;3848;42.016;23.098;2022-10-31T02:26:20;18.13;;;16.70;;
7613;SDS011;3848;42.016;23.098;2022-10-31T02:29:22;17.43;;;16.40;;
7613;SDS011;3848;42.016;23.098;2022-10-31T02:32:27;18.77;;;17.13;;
7613;SDS011;3848;42.016;23.098;2022-10-31T02:35:04;21.00;;;18.77;;
7613;SDS011;3848;42.016;23.098;2022-10-31T02:37:40;25.43;;;20.47;;
7613;SDS011;3848;42.016;23.098;2022-10-31T02:40:14;20.93;;;19.60;;
7613;SDS011;3848;42.016;23.098;2022-10-31T02:42:49;23.53;;;21.77;;
7613;SDS011;3848;42.016;23.098;2022-10-31T02:45:23;25.97;;;24.37;;
7613;SDS011;3848;42.016;23.098;2022-10-31T02:47:57;27.40;;;25.70;;
7613;SDS011;3848;42.016;23.098;2022-10-31T02:50:28;33.93;;;27.43;;
7613;SDS011;3848;42.016;23.098;2022-10-31T02:52:57;29.43;;;27.60;;
7613;SDS011;3848;42.016;23.098;2022-10-31T02:55:42;28.60;;;26.93;;
7613;SDS011;3848;42.016;23.098;2022-10-31T02:58:15;32.97;;;29.53;;
7613;SDS011;3848;42.016;23.098;2022-10-31T03:00:51;28.60;;;26.77;;
7613;SDS011;3848;42.016;23.098;2022-10-31T03:03:30;29.80;;;27.63;;
7613;SDS011;3848;42.016;23.098;2022-10-31T03:06:05;27.47;;;25.87;;
7613;SDS011;3848;42.016;23.098;2022-10-31T03:08:40;27.97;;;25.97;;
7613;SDS011;3848;42.016;23.098;2022-10-31T03:11:13;28.10;;;25.80;;
7613;SDS011;3848;42.016;23.098;2022-10-31T03:13:41;28.97;;;26.80;;
7613;SDS011;3848;42.016;23.098;2022-10-31T03:16:13;28.63;;;26.97;;
7613;SDS011;3848;42.016;23.098;2022-10-31T03:18:44;28.43;;;26.63;;
7613;SDS011;3848;42.016;23.098;2022-10-31T03:21:18;28.17;;;25.77;;
7613;SDS011;3848;42.016;23.098;2022-10-31T03:23:49;29.67;;;27.77;;
7613;SDS011;3848;42.016;23.098;2022-10-31T03:26:18;30.30;;;28.30;;
7613;SDS011;3848;42.016;23.098;2022-10-31T03:28:48;28.80;;;26.40;;
7613;SDS011;3848;42.016;23.098;2022-10-31T03:31:19;29.37;;;27.43;;
7613;SDS011;3848;42.016;23.098;2022-10-31T03:33:52;27.37;;;25.47;;
7613;SDS011;3848;42.016;23.098;2022-10-31T03:36:22;27.97;;;26.13;;
7613;SDS011;3848;42.016;23.098;2022-10-31T03:38:49;28.33;;;26.63;;
7613;SDS011;3848;42.016;23.098;2022-10-31T03:41:18;27.77;;;26.07;;
7613;SDS011;3848;42.016;23.098;2022-10-31T03:43:52;29.03;;;27.27;;
7613;SDS011;3848;42.016;23.098;2022-10-31T03:46:23;29.93;;;27.90;;
7613;SDS011;3848;42.016;23.098;2022-10-31T03:48:50;30.30;;;28.03;;
7613;SDS011;3848;42.016;23.098;2022-10-31T03:51:21;27.90;;;26.27;;
7613;SDS011;3848;42.016;23.098;2022-10-31T03:53:54;28.90;;;26.67;;
7613;SDS011;3848;42.016;23.098;2022-10-31T03:56:27;26.93;;;25.23;;
7613;SDS011;3848;42.016;23.098;2022-10-31T03:59:01;24.83;;;23.50;;
7613;SDS011;3848;42.016;23.098;2022-10-31T04:01:32;25.13;;;23.33;;
7613;SDS011;3848;42.016;23.098;2022-10-31T04:04:03;26.03;;;24.53;;
7613;SDS011;3848;42.016;23.098;2022-10-31T04:06:33;24.60;;;22.47;;
7613;SDS011;3848;42.016;23.098;2022-10-31T04:09:04;24.53;;;22.90;;
7613;SDS011;3848;42.016;23.098;2022-10-31T04:11:33;23.50;;;22.10;;
7613;SDS011;3848;42.016;23.098;2022-10-31T04:14:02;23.10;;;21.70;;
7613;SDS011;3848;42.016;23.098;2022-10-31T04:16:31;22.30;;;20.90;;
7613;SDS011;3848;42.016;23.098;2022-10-31T04:18:57;22.67;;;21.27;;
7613;SDS011;3848;42.016;23.098;2022-10-31T04:21:27;24.20;;;22.60;;
7613;SDS011;3848;42.016;23.098;2022-10-31T04:23:56;24.50;;;23.10;;
7613;SDS011;3848;42.016;23.098;2022-10-31T04:26:23;26.63;;;25.03;;
7613;SDS011;3848;42.016;23.098;2022-10-31T04:28:50;25.80;;;24.30;;
7613;SDS011;3848;42.016;23.098;2022-10-31T04:31:17;27.87;;;25.87;;
7613;SDS011;3848;42.016;23.098;2022-10-31T04:33:44;26.87;;;25.20;;
7613;SDS011;3848;42.016;23.098;2022-10-31T04:36:11;29.27;;;27.03;;
7613;SDS011;3848;42.016;23.098;2022-10-31T04:38:37;27.03;;;25.37;;
7613;SDS011;3848;42.016;23.098;2022-10-31T04:41:06;29.37;;;26.60;;
7613;SDS011;3848;42.016;23.098;2022-10-31T04:43:32;27.13;;;25.53;;
7613;SDS011;3848;42.016;23.098;2022-10-31T04:45:59;28.37;;;26.53;;
7613;SDS011;3848;42.016;23.098;2022-10-31T04:48:26;27.50;;;25.70;;
7613;SDS011;3848;42.016;23.098;2022-10-31T04:50:57;28.40;;;26.70;;
7613;SDS011;3848;42.016;23.098;2022-10-31T04:53:24;28.10;;;26.50;;
7613;SDS011;3848;42.016;23.098;2022-10-31T04:55:51;27.67;;;26.17;;
7613;SDS011;3848;42.016;23.098;2022-10-31T04:58:19;27.70;;;25.70;;
7613;SDS011;3848;42.016;23.098;2022-10-31T05:00:46;26.47;;;24.77;;
7613;SDS011;3848;42.016;23.098;2022-10-31T05:03:13;25.27;;;23.77;;
7613;SDS011;3848;42.016;23.098;2022-10-31T05:05:41;27.67;;;25.77;;
7613;SDS011;3848;42.016;23.098;2022-10-31T05:08:07;27.27;;;25.77;;
7613;SDS011;3848;42.016;23.098;2022-10-31T05:10:34;28.00;;;26.20;;
7613;SDS011;3848;42.016;23.098;2022-10-31T05:13:02;29.97;;;27.73;;
7613;SDS011;3848;42.016;23.098;2022-10-31T05:15:31;27.83;;;25.47;;
7613;SDS011;3848;42.016;23.098;2022-10-31T05:17:58;29.33;;;27.37;;
7613;SDS011;3848;42.016;23.098;2022-10-31T05:20:26;27.73;;;26.13;;
7613;SDS011;3848;42.016;23.098;2022-10-31T05:22:55;27.40;;;25.80;;
7613;SDS011;3848;42.016;23.098;2022-10-31T05:25:23;28.37;;;26.57;;
7613;SDS011;3848;42.016;23.098;2022-10-31T05:27:51;27.80;;;25.93;;
7613;SDS011;3848;42.016;23.098;2022-10-31T05:30:19;28.87;;;26.80;;
7613;SDS011;3848;42.016;23.098;2022-10-31T05:32:49;28.70;;;26.93;;
7613;SDS011;3848;42.016;23.098;2022-10-31T05:35:17;29.70;;;27.07;;
7613;SDS011;3848;42.016;23.098;2022-10-31T05:37:45;28.90;;;26.77;;
7613;SDS011;3848;42.016;23.098;2022-10-31T05:40:13;28.90;;;26.90;;
7613;SDS011;3848;42.016;23.098;2022-10-31T05:42:41;28.20;;;26.07;;
7613;SDS011;3848;42.016;23.098;2022-10-31T05:45:08;30.40;;;28.37;;
7613;SDS011;3848;42.016;23.098;2022-10-31T05:47:37;30.20;;;28.20;;
7613;SDS011;3848;42.016;23.098;2022-10-31T05:50:06;29.90;;;27.80;;
7613;SDS011;3848;42.016;23.098;2022-10-31T05:52:34;28.47;;;26.77;;
7613;SDS011;3848;42.016;23.098;2022-10-31T05:55:01;28.70;;;27.00;;
7613;SDS011;3848;42.016;23.098;2022-10-31T05:57:29;29.80;;;27.80;;
7613;SDS011;3848;42.016;23.098;2022-10-31T05:59:58;29.43;;;27.17;;
7613;SDS011;3848;42.016;23.098;2022-10-31T06:02:25;31.00;;;28.50;;
7613;SDS011;3848;42.016;23.098;2022-10-31T06:04:56;30.00;;;27.57;;
7613;SDS011;3848;42.016;23.098;2022-10-31T06:07:24;31.80;;;29.47;;
7613;SDS011;3848;42.016;23.098;2022-10-31T06:09:51;30.43;;;27.80;;
7613;SDS011;3848;42.016;23.098;2022-10-31T06:12:18;31.47;;;28.37;;
7613;SDS011;3848;42.016;23.098;2022-10-31T06:14:45;30.63;;;28.10;;
7613;SDS011;3848;42.016;23.098;2022-10-31T06:17:11;29.73;;;27.43;;
7613;SDS011;3848;42.016;23.098;2022-10-31T06:19:38;31.47;;;28.47;;
7613;SDS011;3848;42.016;23.098;2022-10-31T06:22:07;27.97;;;25.87;;
7613;SDS011;3848;42.016;23.098;2022-10-31T06:24:37;28.80;;;26.17;;
7613;SDS011;3848;42.016;23.098;2022-10-31T06:27:04;28.43;;;25.43;;
7613;SDS011;3848;42.016;23.098;2022-10-31T06:29:31;29.03;;;24.80;;
7613;SDS011;3848;42.016;23.098;2022-10-31T06:31:58;27.90;;;25.10;;
7613;SDS011;3848;42.016;23.098;2022-10-31T06:34:25;34.27;;;25.93;;
7613;SDS011;3848;42.016;23.098;2022-10-31T06:36:52;31.50;;;28.50;;
7613;SDS011;3848;42.016;23.098;2022-10-31T06:39:19;33.77;;;30.03;;
7613;SDS011;3848;42.016;23.098;2022-10-31T06:41:48;51.30;;;31.03;;
7613;SDS011;3848;42.016;23.098;2022-10-31T06:44:14;37.67;;;28.73;;
7613;SDS011;3848;42.016;23.098;2022-10-31T06:46:41;30.13;;;26.83;;
7613;SDS011;3848;42.016;23.098;2022-10-31T06:49:08;33.80;;;28.03;;
7613;SDS011;3848;42.016;23.098;2022-10-31T06:51:35;38.97;;;30.00;;
7613;SDS011;3848;42.016;23.098;2022-10-31T06:54:02;36.83;;;33.40;;
7613;SDS011;3848;42.016;23.098;2022-10-31T06:56:29;41.73;;;37.73;;
7613;SDS011;3848;42.016;23.098;2022-10-31T06:58:57;40.93;;;37.63;;
7613;SDS011;3848;42.016;23.098;2022-10-31T07:01:24;38.57;;;34.77;;
7613;SDS011;3848;42.016;23.098;2022-10-31T07:03:51;39.93;;;36.20;;
7613;SDS011;3848;42.016;23.098;2022-10-31T07:06:18;34.07;;;30.70;;
7613;SDS011;3848;42.016;23.098;2022-10-31T07:08:45;38.57;;;29.53;;
7613;SDS011;3848;42.016;23.098;2022-10-31T07:11:12;30.33;;;27.83;;
7613;SDS011;3848;42.016;23.098;2022-10-31T07:13:38;34.77;;;31.93;;
7613;SDS011;3848;42.016;23.098;2022-10-31T07:16:07;38.10;;;35.67;;
7613;SDS011;3848;42.016;23.098;2022-10-31T07:18:37;32.53;;;29.83;;
7613;SDS011;3848;42.016;23.098;2022-10-31T07:21:04;30.80;;;28.37;;
7613;SDS011;3848;42.016;23.098;2022-10-31T07:23:31;30.50;;;27.63;;
7613;SDS011;3848;42.016;23.098;2022-10-31T07:25:58;27.73;;;25.67;;
7613;SDS011;3848;42.016;23.098;2022-10-31T07:28:26;64.17;;;58.50;;
7613;SDS011;3848;42.016;23.098;2022-10-31T07:30:53;31.47;;;28.33;;
7613;SDS011;3848;42.016;23.098;2022-10-31T07:33:23;31.83;;;29.13;;
7613;SDS011;3848;42.016;23.098;2022-10-31T07:35:51;32.33;;;29.37;;
7613;SDS011;3848;42.016;23.098;2022-10-31T07:38:18;47.23;;;35.17;;
7613;SDS011;3848;42.016;23.098;2022-10-31T07:40:49;40.07;;;36.23;;
7613;SDS011;3848;42.016;23.098;2022-10-31T07:43:17;36.20;;;32.87;;
7613;SDS011;3848;42.016;23.098;2022-10-31T07:45:48;47.20;;;43.07;;
7613;SDS011;3848;42.016;23.098;2022-10-31T07:48:15;38.83;;;32.87;;
7613;SDS011;3848;42.016;23.098;2022-10-31T07:50:44;33.33;;;30.37;;
7613;SDS011;3848;42.016;23.098;2022-10-31T07:53:11;31.10;;;28.27;;
7613;SDS011;3848;42.016;23.098;2022-10-31T07:55:39;31.80;;;28.57;;
7613;SDS011;3848;42.016;23.098;2022-10-31T07:58:07;28.93;;;26.37;;
7613;SDS011;3848;42.016;23.098;2022-10-31T08:00:35;26.77;;;24.77;;
7613;SDS011;3848;42.016;23.098;2022-10-31T08:03:03;29.30;;;26.80;;
7613;SDS011;3848;42.016;23.098;2022-10-31T08:05:32;31.13;;;28.63;;
7613;SDS011;3848;42.016;23.098;2022-10-31T08:08:00;28.43;;;26.10;;
7613;SDS011;3848;42.016;23.098;2022-10-31T08:10:28;25.20;;;23.30;;
7613;SDS011;3848;42.016;23.098;2022-10-31T08:12:56;30.67;;;27.37;;
7613;SDS011;3848;42.016;23.098;2022-10-31T08:15:27;25.87;;;23.17;;
7613;SDS011;3848;42.016;23.098;2022-10-31T08:17:54;23.33;;;21.00;;
7613;SDS011;3848;42.016;23.098;2022-10-31T08:20:21;22.97;;;21.00;;
7613;SDS011;3848;42.016;23.098;2022-10-31T08:22:54;21.60;;;19.90;;
7613;SDS011;3848;42.016;23.098;2022-10-31T08:25:24;21.13;;;19.37;;
7613;SDS011;3848;42.016;23.098;2022-10-31T08:27:52;22.90;;;20.77;;
7613;SDS011;3848;42.016;23.098;2022-10-31T08:30:22;22.17;;;18.77;;
7613;SDS011;3848;42.016;23.098;2022-10-31T08:32:56;23.80;;;19.97;;
7613;SDS011;3848;42.016;23.098;2022-10-31T08:35:25;22.03;;;20.23;;
7613;SDS011;3848;42.016;23.098;2022-10-31T08:37:52;21.30;;;19.47;;
7613;SDS011;3848;42.016;23.098;2022-10-31T08:40:20;21.80;;;19.83;;
7613;SDS011;3848;42.016;23.098;2022-10-31T08:42:54;22.17;;;20.33;;
7613;SDS011;3848;42.016;23.098;2022-10-31T08:45:22;23.57;;;21.57;;
7613;SDS011;3848;42.016;23.098;2022-10-31T08:47:48;25.43;;;23.57;;
7613;SDS011;3848;42.016;23.098;2022-10-31T08:50:15;31.63;;;28.47;;
7613;SDS011;3848;42.016;23.098;2022-10-31T08:52:43;26.87;;;24.70;;
7613;SDS011;3848;42.016;23.098;2022-10-31T08:55:13;27.93;;;25.70;;
7613;SDS011;3848;42.016;23.098;2022-10-31T08:57:40;29.00;;;26.53;;
7613;SDS011;3848;42.016;23.098;2022-10-31T09:00:08;27.63;;;25.63;;
7613;SDS011;3848;42.016;23.098;2022-10-31T09:02:36;26.40;;;24.43;;
7613;SDS011;3848;42.016;23.098;2022-10-31T09:05:03;29.60;;;26.93;;
7613;SDS011;3848;42.016;23.098;2022-10-31T09:07:31;27.47;;;25.07;;
7613;SDS011;3848;42.016;23.098;2022-10-31T09:09:57;23.80;;;21.93;;
7613;SDS011;3848;42.016;23.098;2022-10-31T09:12:24;29.87;;;26.77;;
7613;SDS011;3848;42.016;23.098;2022-10-31T09:14:51;26.33;;;24.57;;
7613;SDS011;3848;42.016;23.098;2022-10-31T09:17:19;30.93;;;28.27;;
7613;SDS011;3848;42.016;23.098;2022-10-31T09:19:46;31.70;;;29.50;;
7613;SDS011;3848;42.016;23.098;2022-10-31T09:22:13;28.57;;;26.57;;
7613;SDS011;3848;42.016;23.098;2022-10-31T09:24:40;29.80;;;27.53;;
7613;SDS011;3848;42.016;23.098;2022-10-31T09:27:07;30.50;;;28.20;;
7613;SDS011;3848;42.016;23.098;2022-10-31T09:29:34;30.13;;;28.07;;
7613;SDS011;3848;42.016;23.098;2022-10-31T09:32:01;33.40;;;30.70;;
7613;SDS011;3848;42.016;23.098;2022-10-31T09:34:29;39.00;;;36.50;;
7613;SDS011;3848;42.016;23.098;2022-10-31T09:37:03;48.90;;;45.73;;
7613;SDS011;3848;42.016;23.098;2022-10-31T09:39:30;44.23;;;41.63;;
7613;SDS011;3848;42.016;23.098;2022-10-31T09:42:02;45.27;;;41.97;;
7613;SDS011;3848;42.016;23.098;2022-10-31T09:44:45;53.50;;;50.40;;
7613;SDS011;3848;42.016;23.098;2022-10-31T09:47:22;50.70;;;46.87;;
7613;SDS011;3848;42.016;23.098;2022-10-31T09:50:02;48.57;;;45.60;;
7613;SDS011;3848;42.016;23.098;2022-10-31T09:52:39;44.07;;;41.53;;
7613;SDS011;3848;42.016;23.098;2022-10-31T09:55:14;47.83;;;45.07;;
7613;SDS011;3848;42.016;23.098;2022-10-31T09:57:43;39.10;;;36.63;;
7613;SDS011;3848;42.016;23.098;2022-10-31T10:00:14;38.23;;;35.80;;
7613;SDS011;3848;42.016;23.098;2022-10-31T10:02:44;37.13;;;34.73;;
7613;SDS011;3848;42.016;23.098;2022-10-31T10:05:18;34.33;;;32.13;;
7613;SDS011;3848;42.016;23.098;2022-10-31T10:07:53;31.03;;;29.13;;
7613;SDS011;3848;42.016;23.098;2022-10-31T10:10:27;29.60;;;27.77;;
7613;SDS011;3848;42.016;23.098;2022-10-31T10:13:12;31.20;;;29.10;;
7613;SDS011;3848;42.016;23.098;2022-10-31T10:15:53;22.93;;;21.53;;
7613;SDS011;3848;42.016;23.098;2022-10-31T10:18:31;28.80;;;26.87;;
7613;SDS011;3848;42.016;23.098;2022-10-31T10:21:13;29.93;;;28.17;;
7613;SDS011;3848;42.016;23.098;2022-10-31T10:23:55;29.90;;;28.10;;
7613;SDS011;3848;42.016;23.098;2022-10-31T10:26:34;29.37;;;27.20;;
7613;SDS011;3848;42.016;23.098;2022-10-31T10:29:06;38.17;;;29.37;;
7613;SDS011;3848;42.016;23.098;2022-10-31T10:31:43;30.20;;;28.30;;
7613;SDS011;3848;42.016;23.098;2022-10-31T10:34:14;30.63;;;28.70;;
7613;SDS011;3848;42.016;23.098;2022-10-31T10:36:49;30.60;;;28.50;;
7613;SDS011;3848;42.016;23.098;2022-10-31T10:39:22;32.67;;;29.93;;
7613;SDS011;3848;42.016;23.098;2022-10-31T10:41:51;33.63;;;31.43;;
7613;SDS011;3848;42.016;23.098;2022-10-31T10:44:36;31.47;;;29.40;;
7613;SDS011;3848;42.016;23.098;2022-10-31T10:47:24;32.90;;;30.73;;
7613;SDS011;3848;42.016;23.098;2022-10-31T10:50:05;31.70;;;29.33;;
7613;SDS011;3848;42.016;23.098;2022-10-31T10:52:40;32.03;;;29.60;;
7613;SDS011;3848;42.016;23.098;2022-10-31T10:55:13;35.27;;;32.87;;
7613;SDS011;3848;42.016;23.098;2022-10-31T10:57:52;33.80;;;31.83;;
7613;SDS011;3848;42.016;23.098;2022-10-31T11:00:23;36.50;;;34.33;;
7613;SDS011;3848;42.016;23.098;2022-10-31T11:02:51;39.63;;;37.13;;
7613;SDS011;3848;42.016;23.098;2022-10-31T11:05:23;34.47;;;32.37;;
7613;SDS011;3848;42.016;23.098;2022-10-31T11:07:54;36.37;;;34.00;;
7613;SDS011;3848;42.016;23.098;2022-10-31T11:10:21;33.20;;;30.93;;
7613;SDS011;3848;42.016;23.098;2022-10-31T11:12:58;37.67;;;35.17;;
7613;SDS011;3848;42.016;23.098;2022-10-31T11:15:28;39.27;;;36.77;;
7613;SDS011;3848;42.016;23.098;2022-10-31T11:17:58;38.33;;;36.27;;
7613;SDS011;3848;42.016;23.098;2022-10-31T11:20:27;40.03;;;37.33;;
7613;SDS011;3848;42.016;23.098;2022-10-31T11:23:02;38.00;;;35.50;;
7613;SDS011;3848;42.016;23.098;2022-10-31T11:25:31;35.13;;;32.93;;
7613;SDS011;3848;42.016;23.098;2022-10-31T11:27:59;37.60;;;35.23;;
7613;SDS011;3848;42.016;23.098;2022-10-31T11:30:26;34.73;;;32.60;;
7613;SDS011;3848;42.016;23.098;2022-10-31T11:32:54;38.70;;;36.27;;
7613;SDS011;3848;42.016;23.098;2022-10-31T11:35:22;36.53;;;34.33;;
7613;SDS011;3848;42.016;23.098;2022-10-31T11:37:51;36.47;;;34.17;;
7613;SDS011;3848;42.016;23.098;2022-10-31T11:40:22;36.20;;;33.63;;
7613;SDS011;3848;42.016;23.098;2022-10-31T11:42:52;39.07;;;36.77;;
7613;SDS011;3848;42.016;23.098;2022-10-31T11:45:27;35.77;;;33.27;;
7613;SDS011;3848;42.016;23.098;2022-10-31T11:47:57;35.10;;;33.07;;
7613;SDS011;3848;42.016;23.098;2022-10-31T11:50:27;38.37;;;35.83;;
7613;SDS011;3848;42.016;23.098;2022-10-31T11:52:59;34.43;;;32.33;;
7613;SDS011;3848;42.016;23.098;2022-10-31T11:55:32;37.83;;;35.43;;
7613;SDS011;3848;42.016;23.098;2022-10-31T11:58:00;39.93;;;36.63;;
7613;SDS011;3848;42.016;23.098;2022-10-31T12:00:29;43.33;;;39.93;;
7613;SDS011;3848;42.016;23.098;2022-10-31T12:03:10;39.03;;;36.37;;
7613;SDS011;3848;42.016;23.098;2022-10-31T12:05:41;37.93;;;35.77;;
7613;SDS011;3848;42.016;23.098;2022-10-31T12:08:11;37.23;;;35.13;;
7613;SDS011;3848;42.016;23.098;2022-10-31T12:10:42;45.73;;;42.80;;
7613;SDS011;3848;42.016;23.098;2022-10-31T12:13:24;43.53;;;40.73;;
7613;SDS011;3848;42.016;23.098;2022-10-31T12:16:00;35.10;;;33.10;;
7613;SDS011;3848;42.016;23.098;2022-10-31T12:18:39;35.93;;;33.07;;
7613;SDS011;3848;42.016;23.098;2022-10-31T12:21:19;32.40;;;30.43;;
7613;SDS011;3848;42.016;23.098;2022-10-31T12:24:03;34.17;;;31.33;;
7613;SDS011;3848;42.016;23.098;2022-10-31T12:26:42;31.33;;;29.40;;
7613;SDS011;3848;42.016;23.098;2022-10-31T12:29:20;29.80;;;28.07;;
7613;SDS011;3848;42.016;23.098;2022-10-31T12:32:02;29.20;;;27.30;;
7613;SDS011;3848;42.016;23.098;2022-10-31T12:34:48;29.30;;;27.40;;
7613;SDS011;3848;42.016;23.098;2022-10-31T12:37:30;29.33;;;27.53;;
7613;SDS011;3848;42.016;23.098;2022-10-31T12:40:15;29.73;;;27.43;;
7613;SDS011;3848;42.016;23.098;2022-10-31T12:42:56;28.30;;;26.73;;
7613;SDS011;3848;42.016;23.098;2022-10-31T12:45:40;28.30;;;26.60;;
7613;SDS011;3848;42.016;23.098;2022-10-31T12:48:20;25.90;;;24.13;;
7613;SDS011;3848;42.016;23.098;2022-10-31T12:50:58;26.37;;;24.80;;
7613;SDS011;3848;42.016;23.098;2022-10-31T12:53:38;24.77;;;23.20;;
7613;SDS011;3848;42.016;23.098;2022-10-31T12:56:20;23.93;;;22.60;;
7613;SDS011;3848;42.016;23.098;2022-10-31T12:59:01;25.80;;;24.10;;
7613;SDS011;3848;42.016;23.098;2022-10-31T13:01:34;25.87;;;23.97;;
7613;SDS011;3848;42.016;23.098;2022-10-31T13:04:05;25.20;;;23.33;;
7613;SDS011;3848;42.016;23.098;2022-10-31T13:06:40;25.23;;;22.33;;
7613;SDS011;3848;42.016;23.098;2022-10-31T13:09:13;23.73;;;22.27;;
7613;SDS011;3848;42.016;23.098;2022-10-31T13:11:45;26.93;;;24.93;;
7613;SDS011;3848;42.016;23.098;2022-10-31T13:14:20;25.50;;;23.53;;
7613;SDS011;3848;42.016;23.098;2022-10-31T13:16:53;23.70;;;22.30;;
7613;SDS011;3848;42.016;23.098;2022-10-31T13:19:23;24.03;;;21.93;;
7613;SDS011;3848;42.016;23.098;2022-10-31T13:21:57;22.00;;;20.50;;
7613;SDS011;3848;42.016;23.098;2022-10-31T13:24:30;27.50;;;25.17;;
7613;SDS011;3848;42.016;23.098;2022-10-31T13:27:01;24.07;;;22.67;;
7613;SDS011;3848;42.016;23.098;2022-10-31T13:29:35;25.20;;;23.60;;
7613;SDS011;3848;42.016;23.098;2022-10-31T13:32:06;24.60;;;22.80;;
7613;SDS011;3848;42.016;23.098;2022-10-31T13:34:34;23.77;;;22.47;;
7613;SDS011;3848;42.016;23.098;2022-10-31T13:37:06;24.13;;;22.50;;
7613;SDS011;3848;42.016;23.098;2022-10-31T13:39:45;25.73;;;23.53;;
7613;SDS011;3848;42.016;23.098;2022-10-31T13:42:22;23.37;;;22.07;;
7613;SDS011;3848;42.016;23.098;2022-10-31T13:45:10;23.07;;;21.57;;
7613;SDS011;3848;42.016;23.098;2022-10-31T13:47:40;24.63;;;22.73;;
7613;SDS011;3848;42.016;23.098;2022-10-31T13:50:18;23.87;;;22.47;;
7613;SDS011;3848;42.016;23.098;2022-10-31T13:52:47;25.43;;;23.83;;
7613;SDS011;3848;42.016;23.098;2022-10-31T13:58:05;23.37;;;22.07;;
7613;SDS011;3848;42.016;23.098;2022-10-31T14:00:58;23.60;;;22.20;;
7613;SDS011;3848;42.016;23.098;2022-10-31T14:03:36;22.50;;;21.30;;
7613;SDS011;3848;42.016;23.098;2022-10-31T14:06:04;22.73;;;21.53;;
7613;SDS011;3848;42.016;23.098;2022-10-31T14:08:35;23.57;;;22.27;;
7613;SDS011;3848;42.016;23.098;2022-10-31T14:11:06;23.73;;;22.33;;
7613;SDS011;3848;42.016;23.098;2022-10-31T14:13:36;23.97;;;22.50;;
7613;SDS011;3848;42.016;23.098;2022-10-31T14:16:17;23.57;;;22.27;;
7613;SDS011;3848;42.016;23.098;2022-10-31T14:18:47;24.37;;;23.07;;
7613;SDS011;3848;42.016;23.098;2022-10-31T14:21:26;24.87;;;23.00;;
7613;SDS011;3848;42.016;23.098;2022-10-31T14:23:55;23.17;;;21.83;;
7613;SDS011;3848;42.016;23.098;2022-10-31T14:26:31;23.87;;;22.60;;
7613;SDS011;3848;42.016;23.098;2022-10-31T14:29:00;23.90;;;22.50;;
7613;SDS011;3848;42.016;23.098;2022-10-31T14:31:35;24.00;;;22.60;;
7613;SDS011;3848;42.016;23.098;2022-10-31T14:34:14;24.33;;;22.83;;
7613;SDS011;3848;42.016;23.098;2022-10-31T14:36:51;23.87;;;22.33;;
7613;SDS011;3848;42.016;23.098;2022-10-31T14:39:40;24.20;;;22.83;;
7613;SDS011;3848;42.016;23.098;2022-10-31T14:42:19;23.90;;;22.50;;
7613;SDS011;3848;42.016;23.098;2022-10-31T14:45:05;25.33;;;23.67;;
7613;SDS011;3848;42.016;23.098;2022-10-31T14:47:44;25.40;;;23.90;;
7613;SDS011;3848;42.016;23.098;2022-10-31T14:50:21;25.13;;;23.13;;
7613;SDS011;3848;42.016;23.098;2022-10-31T14:53:04;26.90;;;25.00;;
7613;SDS011;3848;42.016;23.098;2022-10-31T14:55:34;30.93;;;28.60;;
7613;SDS011;3848;42.016;23.098;2022-10-31T14:58:09;26.67;;;24.83;;
7613;SDS011;3848;42.016;23.098;2022-10-31T15:00:35;25.97;;;24.47;;
7613;SDS011;3848;42.016;23.098;2022-10-31T15:03:09;26.23;;;24.77;;